Time;durP1;ratioP1;P1;durP2;ratioP2;P2;SDS_P1;SDS_P2;PMS_P1;PMS_P2;Temp;Humidity;BMP_temperature;BMP_pressure;BME280_temperature;BME280_humidity;BME280_pressure;Samples;Min_cycle;Max_cycle;Signal;HPM_P1;HPM_P2
2023/08/30 00:00:21;;;;;;;17.37;15.60;;;12.40;99.90;;;;;;5054525;28;20649;-74
2023/08/30 00:02:48;;;;;;;17.50;16.00;;;12.40;99.90;;;;;;5056079;28;20821;-74
2023/08/30 00:05:15;;;;;;;17.60;15.93;;;12.40;99.90;;;;;;5055946;28;20653;-74
2023/08/30 00:07:42;;;;;;;17.37;15.63;;;12.50;99.90;;;;;;5055888;28;20193;-75
2023/08/30 00:10:10;;;;;;;17.60;15.80;;;12.40;99.90;;;;;;5055889;28;20248;-73
2023/08/30 00:12:37;;;;;;;18.80;17.17;;;12.50;99.90;;;;;;5055883;28;20649;-74
2023/08/30 00:15:06;;;;;;;17.93;16.10;;;12.40;99.90;;;;;;5055767;28;20707;-74
2023/08/30 00:17:32;;;;;;;17.77;15.43;;;12.40;99.90;;;;;;5055947;28;20198;-74
2023/08/30 00:19:59;;;;;;;19.10;17.30;;;12.40;99.90;;;;;;5055850;28;20276;-74
2023/08/30 00:22:28;;;;;;;17.53;15.97;;;12.50;99.90;;;;;;5055678;28;20311;-75
2023/08/30 00:24:55;;;;;;;20.93;17.43;;;12.40;99.90;;;;;;5055647;28;20201;-74
2023/08/30 00:27:21;;;;;;;19.23;17.33;;;12.40;99.90;;;;;;5055833;28;20206;-75
2023/08/30 00:29:48;;;;;;;19.03;17.23;;;12.40;99.90;;;;;;5055863;28;20201;-74
2023/08/30 00:32:16;;;;;;;20.13;18.10;;;12.40;99.90;;;;;;5055517;28;20276;-74
2023/08/30 00:34:43;;;;;;;20.57;18.43;;;12.40;99.90;;;;;;5055341;28;20201;-74
2023/08/30 00:37:09;;;;;;;22.77;20.50;;;12.40;99.90;;;;;;5055453;28;20205;-74
2023/08/30 00:39:38;;;;;;;23.37;21.07;;;12.50;99.90;;;;;;5055374;28;20653;-74
2023/08/30 00:42:07;;;;;;;22.13;19.87;;;12.60;99.90;;;;;;5054976;28;20244;-74
2023/08/30 00:44:33;;;;;;;23.43;21.13;;;12.60;99.90;;;;;;5055701;28;20198;-74
2023/08/30 00:47:01;;;;;;;23.53;21.23;;;12.70;99.90;;;;;;5055406;28;20220;-74
2023/08/30 00:49:29;;;;;;;23.43;21.23;;;12.70;99.90;;;;;;5055521;28;20197;-74
2023/08/30 00:51:57;;;;;;;26.20;23.60;;;12.70;99.90;;;;;;5055278;28;20225;-74
2023/08/30 00:54:23;;;;;;;28.03;25.10;;;12.70;99.90;;;;;;5055807;28;20197;-73
2023/08/30 00:56:51;;;;;;;26.93;24.27;;;12.70;99.90;;;;;;5055252;28;20649;-74
2023/08/30 00:59:18;;;;;;;26.13;23.70;;;12.70;99.90;;;;;;5056624;28;20197;-74
2023/08/30 01:01:45;;;;;;;27.63;24.90;;;12.70;99.90;;;;;;5055038;28;20322;-73
2023/08/30 01:04:12;;;;;;;26.00;23.50;;;12.70;99.90;;;;;;5055165;28;20193;-73
2023/08/30 01:06:40;;;;;;;28.37;25.77;;;12.70;99.90;;;;;;5054846;28;20201;-73
2023/08/30 01:09:07;;;;;;;27.80;24.90;;;12.70;99.90;;;;;;5055093;28;20213;-74
2023/08/30 01:11:40;;;;;;;30.60;27.60;;;12.70;99.90;;;;;;5054363;28;20232;-74
2023/08/30 01:14:09;;;;;;;30.83;27.83;;;12.70;99.90;;;;;;5054871;28;20201;-74
2023/08/30 01:16:36;;;;;;;31.10;28.07;;;12.70;99.90;;;;;;5054728;28;20253;-74
2023/08/30 01:19:18;;;;;;;32.23;29.03;;;12.70;99.90;;;;;;5054549;28;20201;-74
2023/08/30 01:21:53;;;;;;;33.97;30.43;;;12.70;99.90;;;;;;5054421;28;20693;-75
2023/08/30 01:24:30;;;;;;;34.77;31.07;;;12.60;99.90;;;;;;5054695;28;20201;-74
2023/08/30 01:27:09;;;;;;;37.00;33.13;;;12.60;99.90;;;;;;5054578;28;20202;-74
2023/08/30 01:29:37;;;;;;;36.10;32.30;;;12.60;99.90;;;;;;5054523;28;20202;-74
2023/08/30 01:32:05;;;;;;;35.30;31.50;;;12.60;99.90;;;;;;5054378;28;20697;-74
2023/08/30 01:34:33;;;;;;;40.30;32.97;;;12.60;99.90;;;;;;5054737;28;20202;-74
2023/08/30 01:37:00;;;;;;;35.37;31.77;;;12.60;99.90;;;;;;5054463;28;20200;-73
2023/08/30 01:39:28;;;;;;;37.13;33.37;;;12.60;99.90;;;;;;5054460;28;20205;-74
2023/08/30 01:41:58;;;;;;;37.93;33.67;;;12.60;99.90;;;;;;5054258;28;20251;-74
2023/08/30 01:44:28;;;;;;;38.43;34.37;;;12.60;99.90;;;;;;5054798;28;20216;-74
2023/08/30 01:46:56;;;;;;;37.23;33.40;;;12.70;99.90;;;;;;5055231;28;20251;-73
2023/08/30 01:49:23;;;;;;;38.43;34.43;;;12.70;99.90;;;;;;5054534;28;20608;-73
2023/08/30 01:51:51;;;;;;;37.77;33.97;;;12.70;99.90;;;;;;5054231;28;20272;-74
2023/08/30 01:54:19;;;;;;;38.83;34.33;;;12.70;99.90;;;;;;5054303;28;20202;-73
2023/08/30 01:56:47;;;;;;;38.60;34.73;;;12.70;99.90;;;;;;5054350;28;20229;-74
2023/08/30 01:59:13;;;;;;;36.77;32.80;;;12.70;99.90;;;;;;5054317;28;20601;-74
2023/08/30 02:01:41;;;;;;;36.67;32.77;;;12.80;99.90;;;;;;5054125;28;20642;-74
2023/08/30 02:04:08;;;;;;;37.13;33.43;;;12.80;99.90;;;;;;5054251;28;20201;-74
2023/08/30 02:06:40;;;;;;;35.53;31.80;;;12.80;99.90;;;;;;5054209;28;20228;-74
2023/08/30 02:09:14;;;;;;;35.80;32.20;;;12.80;99.90;;;;;;5053693;28;20197;-75
2023/08/30 02:11:44;;;;;;;36.67;32.80;;;12.80;99.90;;;;;;5053658;28;20287;-74
2023/08/30 02:14:16;;;;;;;33.07;29.63;;;12.80;99.90;;;;;;5053664;28;20202;-74
2023/08/30 02:16:46;;;;;;;35.93;32.33;;;12.80;99.90;;;;;;5053693;28;20288;-74
2023/08/30 02:19:16;;;;;;;35.67;32.17;;;12.80;99.90;;;;;;5053522;28;20276;-75
2023/08/30 02:21:43;;;;;;;36.27;32.47;;;12.70;99.90;;;;;;5053343;28;20332;-74
2023/08/30 02:24:10;;;;;;;36.43;32.73;;;12.70;99.90;;;;;;5052595;28;20343;-75
2023/08/30 02:26:37;;;;;;;36.07;32.37;;;12.80;99.90;;;;;;5053417;28;20228;-74
2023/08/30 02:29:04;;;;;;;36.53;32.83;;;12.70;99.90;;;;;;5053319;28;20205;-74
2023/08/30 02:31:30;;;;;;;38.03;34.33;;;12.70;99.90;;;;;;5053163;28;20696;-75
2023/08/30 02:33:58;;;;;;;36.47;32.73;;;12.70;99.90;;;;;;5053215;28;20665;-74
2023/08/30 02:36:25;;;;;;;36.17;32.23;;;12.70;99.90;;;;;;5053468;28;20204;-74
2023/08/30 02:38:51;;;;;;;35.73;32.23;;;12.70;99.90;;;;;;5053329;28;20201;-74
2023/08/30 02:41:18;;;;;;;38.23;34.43;;;12.60;99.90;;;;;;5053173;28;20201;-75
2023/08/30 02:43:45;;;;;;;38.80;35.00;;;12.60;99.90;;;;;;5052847;28;20255;-74
2023/08/30 02:46:11;;;;;;;37.93;33.87;;;12.60;99.90;;;;;;5053055;28;20194;-75
2023/08/30 02:48:38;;;;;;;39.37;35.23;;;12.60;99.90;;;;;;5053128;28;20200;-74
2023/08/30 02:51:06;;;;;;;39.60;35.53;;;12.60;99.90;;;;;;5053023;28;20194;-74
2023/08/30 02:53:32;;;;;;;39.77;35.60;;;12.60;99.90;;;;;;5053163;28;20267;-74
2023/08/30 02:55:59;;;;;;;39.80;35.60;;;12.60;99.90;;;;;;5052990;28;20244;-75
2023/08/30 02:58:26;;;;;;;40.10;36.00;;;12.60;99.90;;;;;;5052893;28;20247;-74
2023/08/30 03:00:53;;;;;;;39.43;35.40;;;12.60;99.90;;;;;;5052610;28;20600;-75
2023/08/30 03:03:20;;;;;;;41.20;36.43;;;12.60;99.90;;;;;;5052631;28;20228;-74
2023/08/30 03:05:47;;;;;;;39.10;35.10;;;12.60;99.90;;;;;;5052559;28;20650;-75
2023/08/30 03:08:14;;;;;;;39.77;35.70;;;12.60;99.90;;;;;;5052845;28;20255;-74
2023/08/30 03:10:41;;;;;;;41.47;37.03;;;12.60;99.90;;;;;;5052469;28;20483;-74
2023/08/30 03:13:08;;;;;;;41.13;36.73;;;12.60;99.90;;;;;;5052646;28;20229;-74
2023/08/30 03:15:34;;;;;;;41.13;36.73;;;12.50;99.90;;;;;;5052408;28;20197;-73
2023/08/30 03:18:02;;;;;;;39.30;35.30;;;12.50;99.90;;;;;;5052779;28;20601;-74
2023/08/30 03:20:29;;;;;;;40.10;35.43;;;12.50;99.90;;;;;;5052564;28;20201;-75
2023/08/30 03:22:57;;;;;;;41.03;36.53;;;12.40;99.90;;;;;;5052427;28;20230;-74
2023/08/30 03:25:25;;;;;;;42.27;36.83;;;12.40;99.90;;;;;;5052519;28;20197;-74
2023/08/30 03:27:52;;;;;;;43.13;38.53;;;12.30;99.90;;;;;;5052474;28;20198;-75
2023/08/30 03:30:19;;;;;;;43.13;37.47;;;12.30;99.90;;;;;;5052219;28;20197;-74
2023/08/30 03:32:45;;;;;;;42.67;37.37;;;12.30;99.90;;;;;;5052587;28;20287;-74
2023/08/30 03:35:14;;;;;;;45.83;38.53;;;12.30;99.90;;;;;;5052204;28;20198;-74
2023/08/30 03:37:41;;;;;;;41.27;36.53;;;12.30;99.90;;;;;;5052446;28;20240;-74
2023/08/30 03:40:09;;;;;;;42.80;38.13;;;12.30;99.90;;;;;;5052314;28;20259;-74
2023/08/30 03:42:37;;;;;;;45.63;38.70;;;12.40;99.90;;;;;;5052382;28;20202;-75
2023/08/30 03:45:05;;;;;;;44.37;39.57;;;12.40;99.90;;;;;;5052389;28;20209;-74
2023/08/30 03:47:32;;;;;;;46.20;38.37;;;12.40;99.90;;;;;;5052382;28;20236;-75
2023/08/30 03:49:58;;;;;;;43.33;38.63;;;12.40;99.90;;;;;;5052468;28;20247;-74
2023/08/30 03:52:25;;;;;;;46.50;38.93;;;12.40;99.90;;;;;;5052303;28;20364;-74
2023/08/30 03:54:52;;;;;;;44.10;38.73;;;12.30;99.90;;;;;;5052254;28;20201;-74
2023/08/30 03:57:18;;;;;;;45.67;38.77;;;12.30;99.90;;;;;;5052120;28;20198;-74
2023/08/30 03:59:47;;;;;;;45.87;40.97;;;12.30;99.90;;;;;;5052131;28;20243;-74
2023/08/30 04:02:13;;;;;;;49.00;42.50;;;12.20;99.90;;;;;;5052150;28;20254;-74
2023/08/30 04:04:40;;;;;;;48.40;41.97;;;12.20;99.90;;;;;;5052164;28;20247;-74
2023/08/30 04:07:06;;;;;;;45.17;38.47;;;12.10;99.90;;;;;;5052143;28;20197;-74
2023/08/30 04:09:33;;;;;;;47.87;40.53;;;12.00;99.90;;;;;;5052097;28;20255;-74
2023/08/30 04:12:00;;;;;;;50.60;44.40;;;12.00;99.90;;;;;;5051929;28;20225;-74
2023/08/30 04:14:27;;;;;;;55.47;47.27;;;11.90;99.90;;;;;;5052317;28;20596;-75
2023/08/30 04:16:55;;;;;;;54.00;47.13;;;11.90;99.90;;;;;;5052283;28;20600;-74
2023/08/30 04:19:21;;;;;;;52.07;43.30;;;11.80;99.90;;;;;;5052177;28;20255;-74
2023/08/30 04:21:48;;;;;;;55.33;49.33;;;11.90;99.90;;;;;;5051964;28;20287;-74
2023/08/30 04:24:15;;;;;;;58.13;49.80;;;11.80;99.90;;;;;;5052023;28;20248;-74
2023/08/30 04:26:42;;;;;;;52.03;42.73;;;11.80;99.90;;;;;;5051933;28;20237;-74
2023/08/30 04:29:08;;;;;;;54.87;42.63;;;11.70;99.90;;;;;;5052083;28;20267;-74
2023/08/30 04:31:35;;;;;;;51.83;41.30;;;11.70;99.90;;;;;;5051975;28;20267;-74
2023/08/30 04:34:03;;;;;;;52.00;41.67;;;11.70;99.90;;;;;;5052100;28;20198;-74
2023/08/30 04:36:29;;;;;;;52.50;43.50;;;11.70;99.90;;;;;;5052096;28;20194;-74
2023/08/30 04:38:56;;;;;;;55.60;44.73;;;11.70;99.90;;;;;;5051814;28;20202;-73
2023/08/30 04:41:23;;;;;;;58.90;46.20;;;11.70;99.90;;;;;;5051668;28;20611;-74
2023/08/30 04:43:49;;;;;;;60.27;45.70;;;11.80;99.90;;;;;;5051717;28;20198;-74
2023/08/30 04:46:16;;;;;;;56.90;44.17;;;11.80;99.90;;;;;;5052113;28;20202;-74
2023/08/30 04:48:42;;;;;;;58.80;45.67;;;11.80;99.90;;;;;;5055137;28;20194;-74
2023/08/30 04:51:10;;;;;;;56.57;44.43;;;11.80;99.90;;;;;;5055182;28;20259;-74
2023/08/30 04:53:37;;;;;;;58.23;45.63;;;11.80;99.90;;;;;;5054866;28;20742;-74
2023/08/30 04:56:11;;;;;;;53.63;43.03;;;11.80;99.90;;;;;;5055168;28;20197;-74
2023/08/30 04:58:38;;;;;;;58.83;45.70;;;11.90;99.90;;;;;;5055407;28;20203;-75
2023/08/30 05:01:06;;;;;;;57.70;44.57;;;11.90;99.90;;;;;;5055069;28;20201;-74
2023/08/30 05:03:33;;;;;;;57.30;43.80;;;11.90;99.90;;;;;;5055245;28;20280;-74
2023/08/30 05:05:59;;;;;;;55.03;43.07;;;11.90;99.90;;;;;;5054720;28;20197;-74
2023/08/30 05:08:27;;;;;;;53.13;43.50;;;11.90;99.90;;;;;;5054935;28;20646;-75
2023/08/30 05:10:54;;;;;;;50.13;41.60;;;11.90;99.90;;;;;;5054925;28;20189;-75
2023/08/30 05:13:21;;;;;;;54.67;43.13;;;12.00;99.90;;;;;;5054846;28;20251;-74
2023/08/30 05:15:48;;;;;;;57.40;43.67;;;12.00;99.90;;;;;;5054944;28;20202;-74
2023/08/30 05:18:15;;;;;;;52.67;42.20;;;12.00;99.90;;;;;;5054621;28;20202;-74
2023/08/30 05:20:41;;;;;;;58.23;43.07;;;12.00;99.90;;;;;;5054635;28;20229;-74
2023/08/30 05:23:08;;;;;;;54.50;43.67;;;12.10;99.90;;;;;;5054286;28;20237;-74
2023/08/30 05:25:36;;;;;;;57.07;44.27;;;12.20;99.90;;;;;;5054723;28;20201;-74
2023/08/30 05:28:03;;;;;;;51.80;42.93;;;12.20;99.90;;;;;;5054575;28;20198;-74
2023/08/30 05:30:30;;;;;;;50.17;41.20;;;12.20;99.90;;;;;;5054583;28;20288;-74
2023/08/30 05:32:56;;;;;;;50.00;41.93;;;12.30;99.90;;;;;;5054307;28;20271;-74
2023/08/30 05:35:23;;;;;;;48.33;41.87;;;12.30;99.90;;;;;;5054283;28;20198;-74
2023/08/30 05:37:50;;;;;;;46.40;40.63;;;12.40;99.90;;;;;;5054216;28;20197;-74
2023/08/30 05:40:17;;;;;;;45.47;39.33;;;12.40;99.90;;;;;;5054378;28;20229;-74
2023/08/30 05:42:45;;;;;;;46.50;39.30;;;12.50;99.90;;;;;;5054337;28;20276;-74
2023/08/30 05:45:12;;;;;;;43.60;38.57;;;12.70;99.90;;;;;;5054097;28;20206;-74
2023/08/30 05:47:39;;;;;;;46.90;38.33;;;12.70;99.90;;;;;;5054139;28;20240;-73
2023/08/30 05:50:06;;;;;;;48.33;41.03;;;12.90;99.90;;;;;;5053948;28;20251;-74
2023/08/30 05:52:33;;;;;;;43.50;37.43;;;13.00;99.90;;;;;;5054045;28;20221;-74
2023/08/30 05:54:59;;;;;;;39.57;35.33;;;13.10;99.90;;;;;;5053961;28;20251;-74
2023/08/30 05:57:28;;;;;;;42.17;37.47;;;13.20;99.90;;;;;;5053625;28;20714;-74
2023/08/30 05:59:56;;;;;;;40.03;35.73;;;13.30;99.90;;;;;;5053816;28;20209;-74
2023/08/30 06:02:23;;;;;;;41.40;36.23;;;13.40;99.90;;;;;;5053807;28;20712;-74
2023/08/30 06:04:49;;;;;;;41.17;36.37;;;13.40;99.90;;;;;;5053977;28;20202;-74
2023/08/30 06:07:17;;;;;;;39.00;34.87;;;13.40;99.90;;;;;;5053792;28;20558;-74
2023/08/30 06:09:43;;;;;;;37.30;33.40;;;13.50;99.90;;;;;;5053921;28;20198;-73
2023/08/30 06:12:10;;;;;;;37.90;33.43;;;13.50;99.90;;;;;;5053597;28;20206;-73
2023/08/30 06:14:36;;;;;;;37.50;33.50;;;13.60;99.90;;;;;;5053712;28;20202;-73
2023/08/30 06:17:05;;;;;;;35.90;32.10;;;13.50;99.90;;;;;;5053555;28;20247;-73
2023/08/30 06:19:31;;;;;;;32.97;29.47;;;13.60;99.90;;;;;;5053663;28;20286;-72
2023/08/30 06:21:57;;;;;;;34.47;30.77;;;13.80;99.90;;;;;;5048907;28;20229;-72
2023/08/30 06:24:24;;;;;;;34.10;30.60;;;13.80;99.90;;;;;;5053273;28;20259;-73
2023/08/30 06:26:50;;;;;;;36.70;32.80;;;13.90;99.90;;;;;;5053238;28;20201;-72
2023/08/30 06:29:17;;;;;;;35.57;31.83;;;13.80;99.90;;;;;;5053254;28;20193;-72
2023/08/30 06:31:45;;;;;;;36.27;32.43;;;13.90;99.90;;;;;;5053164;28;20267;-72
2023/08/30 06:34:13;;;;;;;34.57;31.07;;;13.90;99.90;;;;;;5053185;28;20221;-73
2023/08/30 06:36:39;;;;;;;33.70;30.10;;;13.80;99.90;;;;;;5053311;28;20201;-73
2023/08/30 06:39:06;;;;;;;33.60;30.23;;;13.80;99.90;;;;;;5052920;28;20194;-72
2023/08/30 06:41:32;;;;;;;36.50;32.70;;;13.90;99.90;;;;;;5053088;28;20209;-73
2023/08/30 06:43:59;;;;;;;33.97;30.57;;;13.90;99.90;;;;;;5052925;28;20198;-72
2023/08/30 06:46:26;;;;;;;34.53;31.13;;;14.00;99.90;;;;;;5052890;28;20201;-72
2023/08/30 06:48:52;;;;;;;32.17;28.83;;;14.20;99.90;;;;;;5052868;28;20197;-73
2023/08/30 06:51:20;;;;;;;32.70;29.43;;;14.20;99.90;;;;;;5053007;28;20268;-73
2023/08/30 06:53:47;;;;;;;32.70;29.50;;;14.10;99.90;;;;;;5052658;28;20743;-74
2023/08/30 06:56:14;;;;;;;33.43;30.03;;;14.20;99.90;;;;;;5065831;28;20229;-75
2023/08/30 06:58:41;;;;;;;33.13;29.83;;;14.40;99.90;;;;;;5072629;28;20251;-73
2023/08/30 07:01:07;;;;;;;33.13;29.47;;;14.30;99.90;;;;;;5072682;28;20266;-73
2023/08/30 07:03:34;;;;;;;33.27;29.90;;;14.30;99.90;;;;;;5072915;28;20197;-73
2023/08/30 07:06:00;;;;;;;33.00;29.90;;;14.30;99.90;;;;;;5072716;28;20258;-74
2023/08/30 07:08:28;;;;;;;31.77;28.70;;;14.40;99.90;;;;;;5072460;28;20201;-73
2023/08/30 07:10:55;;;;;;;33.13;29.73;;;14.40;99.90;;;;;;5072093;28;20664;-74
2023/08/30 07:13:22;;;;;;;31.23;28.23;;;14.50;99.90;;;;;;5072373;28;20228;-74
2023/08/30 07:15:48;;;;;;;31.37;28.17;;;14.50;99.90;;;;;;5072777;28;20197;-73
2023/08/30 07:18:15;;;;;;;31.77;28.67;;;14.60;99.90;;;;;;5072813;28;20201;-75
2023/08/30 07:20:42;;;;;;;32.40;29.20;;;14.50;99.90;;;;;;5071881;28;20648;-72
2023/08/30 07:23:10;;;;;;;31.30;28.30;;;14.70;99.90;;;;;;5072339;28;20282;-73
2023/08/30 07:25:38;;;;;;;30.73;27.73;;;14.80;99.90;;;;;;5072427;28;20243;-72
2023/08/30 07:28:05;;;;;;;30.30;27.30;;;14.90;99.90;;;;;;5072644;28;20193;-72
2023/08/30 07:30:34;;;;;;;29.97;27.17;;;14.90;99.90;;;;;;5072595;28;20196;-74
2023/08/30 07:33:01;;;;;;;30.37;27.33;;;14.90;99.90;;;;;;5072579;28;20274;-75
2023/08/30 07:35:28;;;;;;;28.90;26.10;;;15.00;99.90;;;;;;5072369;28;20208;-73
2023/08/30 07:37:55;;;;;;;28.73;25.90;;;15.10;99.90;;;;;;5072398;28;20255;-73
2023/08/30 07:40:24;;;;;;;29.03;26.07;;;15.20;99.90;;;;;;5072345;28;20607;-73
2023/08/30 07:42:52;;;;;;;28.03;25.50;;;15.10;99.90;;;;;;5072538;28;20258;-73
2023/08/30 07:45:18;;;;;;;27.10;24.57;;;15.10;99.90;;;;;;5072499;28;20254;-73
2023/08/30 07:47:45;;;;;;;25.57;23.27;;;15.20;99.90;;;;;;5072316;28;20205;-73
2023/08/30 07:50:12;;;;;;;25.50;23.20;;;15.20;99.90;;;;;;5072032;28;20698;-74
2023/08/30 07:52:38;;;;;;;25.93;23.53;;;15.30;99.90;;;;;;5072199;28;20193;-72
2023/08/30 07:55:05;;;;;;;25.00;22.70;;;15.40;99.90;;;;;;5072528;28;20193;-77
2023/08/30 07:57:32;;;;;;;25.57;23.13;;;15.50;99.90;;;;;;5073816;28;20201;-77
2023/08/30 08:00:00;;;;;;;24.33;22.13;;;15.60;99.90;;;;;;5078740;28;20193;-77
2023/08/30 08:02:26;;;;;;;24.17;21.70;;;15.80;99.90;;;;;;5074596;28;20251;-78
2023/08/30 08:04:53;;;;;;;24.03;21.87;;;15.80;99.90;;;;;;5072990;28;20275;-78
2023/08/30 08:07:20;;;;;;;23.58;21.38;;;15.70;99.90;;;;;;5072560;28;20204;-77
2023/08/30 08:09:46;;;;;;;22.80;20.50;;;15.60;99.90;;;;;;5072664;28;20201;-78
2023/08/30 08:12:13;;;;;;;21.38;19.48;;;16.10;99.90;;;;;;5072816;28;20254;-78
2023/08/30 08:14:39;;;;;;;22.15;20.15;;;16.30;99.90;;;;;;5072884;28;20228;-78
2023/08/30 08:17:07;;;;;;;21.83;19.60;;;16.30;99.90;;;;;;5073247;28;20201;-78
2023/08/30 08:19:38;;;;;;;20.27;18.38;;;16.30;99.90;;;;;;5072365;28;20624;-84
2023/08/30 08:22:05;;;;;;;20.65;18.65;;;16.40;99.90;;;;;;5073754;28;20236;-73
2023/08/30 08:24:32;;;;;;;20.02;18.17;;;16.40;99.90;;;;;;5075729;28;20200;-75
2023/08/30 08:26:59;;;;;;;18.52;16.80;;;16.60;99.90;;;;;;5076065;28;20205;-76
2023/08/30 08:29:27;;;;;;;18.92;17.23;;;16.80;99.90;;;;;;5076108;28;20200;-75
2023/08/30 08:31:54;;;;;;;18.65;16.95;;;16.70;99.90;;;;;;5075541;28;20718;-77
2023/08/30 08:34:22;;;;;;;17.88;16.33;;;16.70;99.90;;;;;;5075520;28;20278;-78
2023/08/30 08:36:48;;;;;;;17.42;15.82;;;17.00;99.90;;;;;;5075725;28;20204;-73
2023/08/30 08:39:16;;;;;;;17.75;16.15;;;17.10;99.90;;;;;;5075279;28;20692;-72
2023/08/30 08:41:44;;;;;;;18.10;16.58;;;16.90;99.90;;;;;;5075499;28;20197;-73
2023/08/30 08:44:12;;;;;;;17.30;15.80;;;16.80;99.90;;;;;;5075439;28;20270;-73
2023/08/30 08:46:42;;;;;;;18.15;16.45;;;16.90;99.90;;;;;;5075285;28;20723;-74
2023/08/30 08:49:11;;;;;;;17.52;16.02;;;16.90;99.90;;;;;;5075158;28;20599;-73
2023/08/30 08:51:40;;;;;;;17.00;15.52;;;17.00;99.90;;;;;;5075502;28;20208;-72
2023/08/30 08:54:09;;;;;;;16.55;15.05;;;17.00;99.90;;;;;;5075351;28;20225;-73
2023/08/30 08:56:36;;;;;;;15.45;14.23;;;16.90;99.90;;;;;;5075251;28;20595;-72
2023/08/30 08:59:03;;;;;;;16.23;14.93;;;17.20;99.90;;;;;;5075212;28;20200;-78
2023/08/30 09:01:31;;;;;;;15.85;14.43;;;17.30;99.90;;;;;;5074913;28;20703;-74
2023/08/30 09:03:58;;;;;;;15.55;14.15;;;17.50;99.90;;;;;;5075007;28;20208;-74
2023/08/30 09:06:25;;;;;;;15.77;14.27;;;17.20;99.90;;;;;;5074783;28;20541;-75
2023/08/30 09:08:53;;;;;;;15.35;13.43;;;17.30;99.90;;;;;;5075115;28;20258;-75
2023/08/30 09:11:20;;;;;;;14.88;13.45;;;17.70;99.90;;;;;;5074891;28;20201;-74
2023/08/30 09:13:46;;;;;;;13.95;12.65;;;17.80;99.90;;;;;;5074683;28;20216;-78
2023/08/30 09:16:14;;;;;;;14.15;13.00;;;18.10;99.90;;;;;;5074773;28;20270;-76
2023/08/30 09:18:41;;;;;;;13.60;12.35;;;18.10;99.90;;;;;;5075037;28;20201;-78
2023/08/30 09:21:08;;;;;;;13.13;11.93;;;18.30;99.90;;;;;;5075037;28;20197;-74
2023/08/30 09:23:35;;;;;;;13.35;12.15;;;18.90;99.90;;;;;;5074855;28;20209;-76
2023/08/30 09:26:04;;;;;;;12.68;11.45;;;19.10;99.90;;;;;;5074679;28;20205;-75
2023/08/30 09:28:31;;;;;;;12.65;11.65;;;18.70;99.90;;;;;;5074584;28;20246;-76
2023/08/30 09:31:00;;;;;;;11.25;10.25;;;18.50;99.90;;;;;;5074649;28;20193;-74
2023/08/30 09:33:32;;;;;;;11.82;10.93;;;19.00;99.90;;;;;;5074164;28;20197;-74
2023/08/30 09:35:59;;;;;;;11.27;10.27;;;19.10;99.90;;;;;;5074730;28;20221;-74
2023/08/30 09:38:27;;;;;;;10.55;9.60;;;19.70;99.90;;;;;;5074437;28;20243;-74
2023/08/30 09:41:03;;;;;;;11.35;10.25;;;20.20;99.90;;;;;;5074429;28;20266;-73
2023/08/30 09:43:33;;;;;;;9.50;8.70;;;20.30;99.90;;;;;;5074570;28;20195;-74
2023/08/30 09:46:04;;;;;;;9.07;8.38;;;19.90;99.90;;;;;;5074284;28;20242;-73
2023/08/30 09:48:32;;;;;;;11.02;9.65;;;19.60;99.90;;;;;;5074309;28;20199;-73
2023/08/30 09:51:00;;;;;;;9.55;8.70;;;19.20;99.90;;;;;;5074144;28;20254;-74
2023/08/30 09:53:27;;;;;;;10.32;8.95;;;19.90;99.90;;;;;;5074068;28;20197;-74
2023/08/30 09:55:55;;;;;;;9.60;8.80;;;20.10;99.90;;;;;;5074029;28;20239;-74
2023/08/30 09:58:22;;;;;;;9.60;7.60;;;20.00;99.90;;;;;;5074137;28;20201;-74
2023/08/30 10:00:51;;;;;;;8.82;8.02;;;20.40;99.90;;;;;;5074054;28;20197;-74
2023/08/30 10:03:18;;;;;;;8.90;8.00;;;19.80;99.90;;;;;;5073400;28;20197;-74
2023/08/30 10:05:45;;;;;;;7.70;6.90;;;19.70;99.90;;;;;;5073872;28;20282;-74
2023/08/30 10:08:13;;;;;;;10.52;7.60;;;19.90;99.90;;;;;;5073741;28;20251;-74
2023/08/30 10:10:41;;;;;;;8.40;7.57;;;19.70;99.90;;;;;;5073973;28;20255;-74
2023/08/30 10:13:08;;;;;;;7.63;7.03;;;19.30;99.90;;;;;;5073602;28;20197;-74
2023/08/30 10:15:40;;;;;;;9.57;8.73;;;19.30;99.90;;;;;;5073280;28;20224;-73
2023/08/30 10:18:11;;;;;;;9.50;8.35;;;19.50;99.90;;;;;;5073493;28;20251;-74
2023/08/30 10:20:38;;;;;;;9.30;8.48;;;19.30;99.90;;;;;;5073476;28;20661;-76
2023/08/30 10:23:06;;;;;;;8.52;7.80;;;19.60;99.90;;;;;;5073220;28;20248;-73
2023/08/30 10:25:34;;;;;;;7.45;6.80;;;19.90;99.90;;;;;;5073420;28;20701;-74
2023/08/30 10:28:01;;;;;;;7.40;6.78;;;20.10;99.90;;;;;;5073305;28;20723;-74
2023/08/30 10:30:28;;;;;;;7.15;6.47;;;20.30;99.90;;;;;;5073494;28;20247;-72
2023/08/30 10:32:55;;;;;;;6.72;6.13;;;20.10;99.90;;;;;;5073210;28;20596;-72
2023/08/30 10:35:23;;;;;;;6.70;6.10;;;20.30;99.90;;;;;;5073159;28;20229;-71
2023/08/30 10:37:57;;;;;;;6.45;5.95;;;20.20;99.90;;;;;;5073230;28;20644;-75
2023/08/30 10:40:23;;;;;;;5.47;5.07;;;20.30;99.90;;;;;;5056328;28;20231;-75
2023/08/30 10:43:00;;;;;;;6.75;5.32;;;19.90;99.90;;;;;;5053245;28;20274;-75
2023/08/30 10:45:26;;;;;;;5.63;5.03;;;20.00;99.90;;;;;;5052414;28;20197;-75
2023/08/30 10:47:56;;;;;;;6.15;5.50;;;20.20;99.90;;;;;;5053044;28;20243;-75
2023/08/30 10:50:31;;;;;;;6.32;5.05;;;20.80;99.90;;;;;;5053271;28;20324;-76
2023/08/30 10:52:57;;;;;;;6.20;5.70;;;21.50;99.90;;;;;;5052646;28;20263;-76
2023/08/30 10:55:24;;;;;;;5.70;5.18;;;21.50;99.90;;;;;;5053055;28;20233;-75
2023/08/30 10:58:00;;;;;;;5.38;4.97;;;21.90;99.90;;;;;;5053171;28;20198;-75
2023/08/30 11:00:29;;;;;;;5.30;4.65;;;22.50;99.90;;;;;;5052886;28;20197;-75
2023/08/30 11:02:55;;;;;;;4.90;4.40;;;23.30;99.90;;;;;;5052839;28;20259;-75
2023/08/30 11:05:23;;;;;;;4.93;4.30;;;24.00;99.90;;;;;;5052827;28;20202;-75
2023/08/30 11:07:52;;;;;;;5.05;4.65;;;24.00;99.90;;;;;;5052880;28;20653;-76
2023/08/30 11:10:20;;;;;;;4.95;4.50;;;23.60;99.90;;;;;;5052773;28;20205;-75
2023/08/30 11:12:49;;;;;;;7.57;4.63;;;24.20;99.90;;;;;;5053474;28;20623;-75
2023/08/30 11:15:16;;;;;;;4.82;4.43;;;23.30;99.90;;;;;;5052877;28;20229;-75
2023/08/30 11:17:43;;;;;;;6.80;5.38;;;23.10;99.90;;;;;;5052623;28;20247;-76
2023/08/30 11:20:11;;;;;;;5.38;4.95;;;22.50;99.90;;;;;;5052735;28;20201;-76
2023/08/30 11:22:39;;;;;;;5.03;4.45;;;23.20;99.90;;;;;;5052432;28;20225;-75
2023/08/30 11:25:09;;;;;;;5.53;4.80;;;24.70;99.90;;;;;;5052287;28;20661;-75
2023/08/30 11:27:36;;;;;;;5.65;4.80;;;23.70;99.90;;;;;;5052335;28;20201;-75
2023/08/30 11:30:05;;;;;;;4.75;4.35;;;23.60;99.90;;;;;;5052692;28;20208;-75
2023/08/30 11:32:33;;;;;;;5.47;4.55;;;23.80;99.90;;;;;;5052607;28;20657;-73
2023/08/30 11:35:00;;;;;;;9.20;5.25;;;24.40;99.90;;;;;;5052512;28;20225;-74
2023/08/30 11:37:28;;;;;;;5.07;4.57;;;24.90;99.90;;;;;;5052751;28;20201;-74
2023/08/30 11:39:56;;;;;;;5.18;4.68;;;23.80;99.90;;;;;;5053341;28;20305;-72
2023/08/30 11:42:24;;;;;;;5.82;5.32;;;22.10;99.90;;;;;;5052284;28;20624;-73
2023/08/30 11:44:51;;;;;;;6.18;5.57;;;21.20;99.90;;;;;;5052474;28;20604;-74
2023/08/30 11:47:21;;;;;;;7.22;6.20;;;20.90;99.90;;;;;;5052407;28;20199;-72
2023/08/30 11:49:49;;;;;;;6.15;5.63;;;21.20;99.90;;;;;;5052337;28;20280;-71
2023/08/30 11:52:16;;;;;;;6.50;5.40;;;21.70;99.90;;;;;;5052150;28;20197;-71
2023/08/30 11:54:44;;;;;;;5.45;5.05;;;23.30;99.90;;;;;;5052344;28;20268;-73
2023/08/30 11:57:11;;;;;;;6.90;4.93;;;24.10;99.90;;;;;;5056215;28;20239;-76
2023/08/30 11:59:39;;;;;;;5.88;5.32;;;22.90;99.90;;;;;;5056298;28;20201;-73
2023/08/30 12:02:07;;;;;;;5.20;4.78;;;23.10;99.90;;;;;;5056241;28;20198;-73
2023/08/30 12:04:33;;;;;;;6.55;5.38;;;22.90;99.90;;;;;;5056230;28;20251;-74
2023/08/30 12:07:00;;;;;;;5.75;5.25;;;21.90;99.90;;;;;;5055899;28;20658;-73
2023/08/30 12:09:31;;;;;;;6.32;5.82;;;22.10;99.90;;;;;;5056206;28;20252;-73
2023/08/30 12:12:06;;;;;;;6.45;5.85;;;22.10;99.90;;;;;;5055829;28;20650;-73
2023/08/30 12:14:34;;;;;;;6.10;5.65;;;21.80;99.90;;;;;;5055895;28;20274;-73
2023/08/30 12:17:03;;;;;;;5.35;4.95;;;22.40;99.90;;;;;;5055995;28;20202;-73
2023/08/30 12:19:30;;;;;;;5.00;4.57;;;22.30;99.90;;;;;;5055925;28;20273;-82
2023/08/30 12:21:56;;;;;;;4.65;4.20;;;22.10;99.90;;;;;;5056650;28;20631;-78
2023/08/30 12:24:23;;;;;;;3.55;3.30;;;23.40;99.90;;;;;;5056059;28;20260;-73
2023/08/30 12:26:50;;;;;;;3.97;3.60;;;24.10;99.90;;;;;;5055755;28;20293;-73
2023/08/30 12:29:16;;;;;;;6.53;4.68;;;24.40;99.90;;;;;;5055735;28;20197;-72
2023/08/30 12:31:42;;;;;;;4.90;4.50;;;24.00;99.90;;;;;;5055311;28;20205;-74